createdAt,value
2019-05-20T00:02:24.389Z,82.83
2019-05-20T00:04:42.524Z,82.45
2019-05-20T00:07:09.984Z,82.28
2019-05-20T00:09:37.702Z,82.69
2019-05-20T00:12:05.164Z,82.76
2019-05-20T00:14:32.430Z,82.82
2019-05-20T00:17:01.647Z,82.82
2019-05-20T00:19:29.559Z,82.88
2019-05-20T00:21:58.146Z,82.87
2019-05-20T00:24:25.961Z,82.85
2019-05-20T00:26:53.429Z,83.27
2019-05-20T00:29:21.274Z,83.28
2019-05-20T00:31:48.635Z,83.40
2019-05-20T00:34:32.715Z,83.36
2019-05-20T00:36:47.753Z,83.13
2019-05-20T00:39:19.740Z,83.49
2019-05-20T00:41:47.609Z,83.59
2019-05-20T00:44:16.196Z,83.90
2019-05-20T00:46:44.213Z,84.27
2019-05-20T00:49:11.745Z,84.14
2019-05-20T00:51:39.592Z,84.91
2019-05-20T00:54:07.453Z,84.28
2019-05-20T00:56:35.968Z,84.22
2019-05-20T00:59:04.004Z,85.40
2019-05-20T01:01:33.343Z,85.36
2019-05-20T01:04:00.689Z,84.55
2019-05-20T01:06:28.557Z,85.98
2019-05-20T01:08:56.177Z,87.09
2019-05-20T01:11:23.680Z,88.06
2019-05-20T01:13:52.373Z,88.15
2019-05-20T01:16:20.349Z,88.30
2019-05-20T01:18:47.700Z,86.97
2019-05-20T01:21:15.052Z,84.86
2019-05-20T01:23:45.499Z,83.84
2019-05-20T01:26:13.292Z,83.51
2019-05-20T01:28:40.803Z,83.48
2019-05-20T01:31:08.474Z,83.43
2019-05-20T01:33:35.960Z,83.40
2019-05-20T01:36:03.930Z,83.62
2019-05-20T01:38:31.494Z,83.69
2019-05-20T01:40:58.945Z,83.91
2019-05-20T01:43:26.560Z,84.03
2019-05-20T01:45:54.493Z,83.99
2019-05-20T01:48:22.041Z,84.94
2019-05-20T01:50:49.488Z,84.75
2019-05-20T01:53:17.464Z,87.11
2019-05-20T01:55:45.225Z,86.32
2019-05-20T01:58:13.053Z,85.06
2019-05-20T02:00:42.727Z,84.52
2019-05-20T02:03:10.169Z,84.83
2019-05-20T02:05:38.114Z,87.58
2019-05-20T02:08:05.731Z,89.56
2019-05-20T02:10:33.177Z,88.46
2019-05-20T02:13:00.632Z,86.79
2019-05-20T02:15:37.925Z,86.09
2019-05-20T02:18:05.317Z,86.00
2019-05-20T02:20:32.669Z,86.01
2019-05-20T02:23:20.809Z,88.29
2019-05-20T02:25:49.706Z,87.36
2019-05-20T02:28:17.263Z,86.44
2019-05-20T02:30:45.441Z,86.50
2019-05-20T02:33:12.736Z,86.87
2019-05-20T02:35:40.246Z,87.18
2019-05-20T02:38:07.624Z,87.75
2019-05-20T02:40:35.586Z,87.04
2019-05-20T02:43:02.947Z,88.02
2019-05-20T02:45:30.420Z,87.02
2019-05-20T02:47:57.789Z,86.52
2019-05-20T02:50:25.757Z,86.00
2019-05-20T02:52:53.415Z,85.98
2019-05-20T02:55:21.003Z,85.81
2019-05-20T02:57:48.326Z,85.65
2019-05-20T03:00:17.130Z,85.55
2019-05-20T03:02:44.695Z,85.98
2019-05-20T03:05:12.410Z,86.17
2019-05-20T03:07:39.712Z,86.39
2019-05-20T03:10:09.227Z,86.93
2019-05-20T03:12:36.716Z,87.07
2019-05-20T03:15:04.783Z,87.38
2019-05-20T03:17:32.835Z,87.40
2019-05-20T03:20:00.199Z,87.20
2019-05-20T03:22:27.616Z,86.86
2019-05-20T03:24:55.094Z,86.47
2019-05-20T03:27:23.066Z,86.35
2019-05-20T03:29:50.429Z,86.57
2019-05-20T03:32:18.080Z,86.29
2019-05-20T03:34:56.951Z,86.14
2019-05-20T03:37:14.742Z,87.08
2019-05-20T03:39:42.088Z,88.42
2019-05-20T03:42:09.643Z,90.02
2019-05-20T03:44:37.413Z,90.04
2019-05-20T03:47:04.770Z,88.92
2019-05-20T03:49:32.137Z,88.22
2019-05-20T03:52:00.906Z,87.87
2019-05-20T03:54:28.569Z,87.69
2019-05-20T03:56:56.134Z,87.80
2019-05-20T03:59:23.542Z,90.06
2019-05-20T04:01:51.171Z,90.69
2019-05-20T04:04:18.614Z,90.96
2019-05-20T04:06:45.991Z,90.07
2019-05-20T04:09:13.242Z,90.32
2019-05-20T04:11:40.710Z,91.04
2019-05-20T04:14:08.166Z,91.80
2019-05-20T04:16:35.944Z,91.58
2019-05-20T04:19:03.365Z,89.38
2019-05-20T04:21:31.111Z,87.78
2019-05-20T04:24:01.289Z,86.94
2019-05-20T04:26:27.846Z,86.49
2019-05-20T04:28:55.454Z,85.94
2019-05-20T04:31:22.827Z,85.44
2019-05-20T04:33:50.577Z,84.68
2019-05-20T04:36:17.909Z,86.35
2019-05-20T04:38:45.808Z,85.93
2019-05-20T04:41:13.681Z,85.26
2019-05-20T04:43:41.876Z,86.81
2019-05-20T04:46:09.233Z,89.00
2019-05-20T04:48:37.827Z,89.65
2019-05-20T04:51:05.304Z,89.26
2019-05-20T04:53:36.442Z,87.65
2019-05-20T04:56:05.567Z,86.08
2019-05-20T04:58:32.885Z,85.27
2019-05-20T05:01:02.686Z,85.32
2019-05-20T05:03:29.946Z,85.23
2019-05-20T05:05:59.381Z,84.44
2019-05-20T05:08:28.066Z,83.57
2019-05-20T05:10:55.781Z,83.61
2019-05-20T05:13:23.567Z,84.51
2019-05-20T05:15:51.275Z,84.51
2019-05-20T05:18:19.412Z,84.14
2019-05-20T05:20:46.984Z,83.72
2019-05-20T05:23:14.539Z,83.57
2019-05-20T05:25:42.102Z,84.14
2019-05-20T05:28:10.167Z,83.48
2019-05-20T05:30:38.794Z,85.36
2019-05-20T05:33:06.225Z,85.71
2019-05-20T05:35:33.503Z,85.15
2019-05-20T05:38:02.002Z,85.64
2019-05-20T05:40:31.001Z,85.01
2019-05-20T05:42:58.540Z,85.57
2019-05-20T05:45:30.261Z,85.69
2019-05-20T05:47:58.471Z,87.13
2019-05-20T05:50:26.550Z,87.93
2019-05-20T05:52:55.747Z,87.68
2019-05-20T05:55:23.225Z,87.63
2019-05-20T05:57:51.215Z,88.99
2019-05-20T06:00:19.724Z,90.42
2019-05-20T06:02:47.175Z,91.29
2019-05-20T06:05:14.641Z,90.36
2019-05-20T06:07:42.499Z,89.75
2019-05-20T06:10:10.191Z,91.08
2019-05-20T06:12:37.621Z,90.34
2019-05-20T06:15:05.333Z,88.62
2019-05-20T06:17:33.015Z,88.28
2019-05-20T06:20:00.515Z,88.21
2019-05-20T06:22:28.025Z,90.58
2019-05-20T06:25:05.879Z,90.91
2019-05-20T06:27:42.101Z,90.33
2019-05-20T06:30:10.804Z,89.33
2019-05-20T06:32:40.729Z,88.36
2019-05-20T06:35:08.742Z,89.07
2019-05-20T06:37:39.984Z,89.11
2019-05-20T06:40:07.652Z,88.64
2019-05-20T06:42:36.060Z,90.24
2019-05-20T06:45:04.961Z,89.95
2019-05-20T06:47:33.104Z,90.05
2019-05-20T06:50:00.475Z,88.84
2019-05-20T06:52:35.934Z,91.28
2019-05-20T06:54:58.260Z,91.90
2019-05-20T06:57:25.774Z,90.55
2019-05-20T06:59:53.338Z,90.06
2019-05-20T07:02:21.296Z,89.80
2019-05-20T07:04:49.273Z,91.99
2019-05-20T07:07:21.712Z,92.65
2019-05-20T07:09:49.076Z,92.03
2019-05-20T07:12:16.521Z,93.23
2019-05-20T07:14:44.608Z,92.23
2019-05-20T07:17:11.953Z,92.51
2019-05-20T07:19:39.944Z,92.80
2019-05-20T07:22:07.585Z,91.83
2019-05-20T07:24:35.052Z,91.59
2019-05-20T07:27:02.507Z,92.30
2019-05-20T07:29:29.901Z,92.79
2019-05-20T07:31:57.226Z,92.23
2019-05-20T07:34:25.752Z,92.46
2019-05-20T07:37:03.230Z,92.37
2019-05-20T07:39:25.940Z,92.13
2019-05-20T07:41:53.637Z,91.70
2019-05-20T07:44:21.246Z,91.18
2019-05-20T07:46:49.097Z,90.50
2019-05-20T07:49:17.155Z,90.86
2019-05-20T07:51:46.014Z,90.20
2019-05-20T07:54:18.240Z,90.71
2019-05-20T07:56:49.081Z,90.62
2019-05-20T07:59:20.030Z,91.11
2019-05-20T08:01:47.821Z,91.07
2019-05-20T08:04:15.232Z,89.90
2019-05-20T08:06:43.022Z,89.33
2019-05-20T08:09:10.576Z,90.40
2019-05-20T08:11:38.207Z,90.42
2019-05-20T08:14:05.828Z,89.66
2019-05-20T08:16:33.896Z,88.82
2019-05-20T08:19:01.422Z,89.78
2019-05-20T08:21:29.082Z,89.08
2019-05-20T08:23:56.671Z,89.90
2019-05-20T08:26:24.371Z,90.64
2019-05-20T08:28:51.914Z,90.01
2019-05-20T08:31:19.502Z,90.14
2019-05-20T08:33:47.383Z,90.55
2019-05-20T08:36:15.152Z,89.32
2019-05-20T08:38:42.501Z,89.92
2019-05-20T08:41:10.146Z,89.99
2019-05-20T08:43:37.957Z,88.20
2019-05-20T08:46:05.525Z,87.68
2019-05-20T08:48:34.620Z,88.62
2019-05-20T08:51:02.149Z,89.14
2019-05-20T08:53:29.838Z,89.00
2019-05-20T08:55:57.284Z,88.74
2019-05-20T08:58:25.065Z,88.53
2019-05-20T09:00:52.633Z,87.42
2019-05-20T09:03:20.283Z,85.93
2019-05-20T09:05:47.635Z,87.79
2019-05-20T09:08:14.988Z,87.49
2019-05-20T09:10:42.545Z,88.97
2019-05-20T09:13:10.015Z,88.30
2019-05-20T09:15:37.359Z,87.92
2019-05-20T09:18:04.837Z,87.42
2019-05-20T09:20:32.703Z,86.30
2019-05-20T09:23:02.670Z,87.17
2019-05-20T09:25:30.742Z,86.17
2019-05-20T09:27:58.605Z,86.51
2019-05-20T09:30:25.992Z,86.30
2019-05-20T09:32:53.769Z,87.19
2019-05-20T09:35:21.346Z,84.96
2019-05-20T09:37:49.365Z,83.24
2019-05-20T09:40:34.094Z,81.94
2019-05-20T09:43:01.935Z,82.03
2019-05-20T09:45:31.627Z,81.91
2019-05-20T09:47:59.655Z,82.90
2019-05-20T09:50:27.357Z,81.50
2019-05-20T09:52:55.290Z,82.13
2019-05-20T09:55:22.915Z,82.47
2019-05-20T09:57:50.404Z,82.22
2019-05-20T10:00:19.256Z,84.25
2019-05-20T10:02:47.241Z,84.06
2019-05-20T10:05:15.002Z,86.26
2019-05-20T10:07:42.662Z,86.68
2019-05-20T10:10:10.419Z,85.68
2019-05-20T10:12:46.259Z,84.72
2019-05-20T10:15:09.088Z,82.91
2019-05-20T10:17:36.676Z,82.92
2019-05-20T10:20:04.949Z,83.17
2019-05-20T10:22:32.566Z,82.48
2019-05-20T10:25:00.080Z,83.10
2019-05-20T10:27:27.750Z,83.72
2019-05-20T10:29:55.958Z,82.77
2019-05-20T10:32:23.479Z,81.92
2019-05-20T10:34:51.042Z,80.77
2019-05-20T10:37:18.409Z,81.72
2019-05-20T10:39:47.222Z,80.20
2019-05-20T10:42:14.581Z,80.03
2019-05-20T10:44:44.915Z,78.85
2019-05-20T10:47:14.210Z,81.25
2019-05-20T10:49:42.182Z,79.16
2019-05-20T10:52:09.534Z,77.73
2019-05-20T10:54:38.735Z,77.57
2019-05-20T10:57:07.945Z,78.15
2019-05-20T10:59:35.698Z,77.12
2019-05-20T11:02:03.187Z,78.57
2019-05-20T11:04:30.727Z,78.80
2019-05-20T11:06:58.050Z,79.33
2019-05-20T11:09:26.162Z,78.08
2019-05-20T11:11:53.717Z,78.27
2019-05-20T11:14:21.371Z,76.91
2019-05-20T11:16:48.934Z,77.80
2019-05-20T11:19:16.805Z,77.67
2019-05-20T11:21:44.152Z,77.77
2019-05-20T11:24:11.811Z,75.44
2019-05-20T11:26:39.478Z,74.88
2019-05-20T11:29:07.677Z,74.88
2019-05-20T11:31:35.274Z,76.93
2019-05-20T11:34:02.776Z,75.74
2019-05-20T11:36:30.122Z,76.03
2019-05-20T11:38:57.988Z,75.99
2019-05-20T11:41:52.018Z,75.84
2019-05-20T11:43:58.334Z,76.20
2019-05-20T11:46:25.719Z,74.84
2019-05-20T11:48:53.555Z,74.36
2019-05-20T11:51:21.026Z,74.08
2019-05-20T11:53:49.033Z,73.66
2019-05-20T11:56:16.546Z,73.60
2019-05-20T11:58:44.539Z,73.59
2019-05-20T12:01:12.089Z,74.41
2019-05-20T12:03:39.416Z,73.01
2019-05-20T12:06:07.671Z,72.20
2019-05-20T12:08:35.410Z,73.13
2019-05-20T12:11:02.675Z,72.35
2019-05-20T12:13:30.625Z,71.85
2019-05-20T12:15:58.038Z,71.18
2019-05-20T12:18:25.453Z,69.73
2019-05-20T12:20:53.298Z,73.27
2019-05-20T12:23:21.335Z,72.60
2019-05-20T12:25:49.137Z,73.46
2019-05-20T12:28:16.598Z,72.60
2019-05-20T12:30:44.063Z,71.55
2019-05-20T12:33:19.875Z,73.43
2019-05-20T12:35:41.330Z,72.27
2019-05-20T12:38:08.772Z,74.52
2019-05-20T12:40:36.258Z,75.72
2019-05-20T12:43:05.250Z,76.44
2019-05-20T12:45:32.714Z,76.12
2019-05-20T12:48:00.183Z,74.29
2019-05-20T12:50:27.565Z,74.90
2019-05-20T12:52:54.906Z,74.36
2019-05-20T12:55:22.857Z,74.73
2019-05-20T12:57:50.415Z,76.12
2019-05-20T13:00:18.802Z,76.55
2019-05-20T13:02:46.152Z,75.83
2019-05-20T13:05:14.520Z,77.09
2019-05-20T13:07:41.882Z,77.14
2019-05-20T13:10:27.014Z,77.76
2019-05-20T13:12:39.202Z,77.08
2019-05-20T13:15:07.726Z,75.61
2019-05-20T13:17:35.357Z,74.06
2019-05-20T13:20:03.578Z,74.48
2019-05-20T13:22:31.344Z,76.26
2019-05-20T13:24:58.705Z,78.14
2019-05-20T13:27:27.186Z,78.78
2019-05-20T13:29:54.641Z,77.74
2019-05-20T13:32:22.305Z,76.83
2019-05-20T13:34:49.862Z,76.72
2019-05-20T13:37:17.474Z,77.30
2019-05-20T13:39:44.876Z,77.94
2019-05-20T13:42:12.658Z,78.60
2019-05-20T13:44:41.586Z,77.01
2019-05-20T13:47:08.993Z,77.52
2019-05-20T13:49:36.505Z,77.12
2019-05-20T13:52:03.999Z,76.18
2019-05-20T13:54:31.472Z,76.92
2019-05-20T13:56:58.928Z,77.66
2019-05-20T13:59:26.790Z,78.03
2019-05-20T14:01:54.249Z,77.74
2019-05-20T14:04:21.896Z,75.65
2019-05-20T14:06:49.675Z,75.50
2019-05-20T14:09:24.124Z,74.62
2019-05-20T14:12:05.868Z,75.22
2019-05-20T14:14:33.879Z,74.73
2019-05-20T14:17:01.876Z,75.81
2019-05-20T14:19:29.390Z,77.04
2019-05-20T14:21:56.754Z,76.14
2019-05-20T14:24:25.427Z,75.52
2019-05-20T14:26:53.262Z,75.58
2019-05-20T14:29:22.609Z,74.92
2019-05-20T14:31:49.963Z,75.79
2019-05-20T14:34:17.398Z,74.86
2019-05-20T14:36:45.902Z,75.98
2019-05-20T14:39:13.562Z,77.15
2019-05-20T14:41:41.479Z,76.14
2019-05-20T14:44:08.890Z,74.16
2019-05-20T14:46:37.267Z,72.87
2019-05-20T14:49:05.195Z,73.74
2019-05-20T14:51:40.917Z,74.23
2019-05-20T14:54:08.605Z,76.22
2019-05-20T14:56:36.423Z,73.18
2019-05-20T14:59:04.524Z,72.66
2019-05-20T15:01:32.067Z,74.11
2019-05-20T15:04:01.635Z,73.30
2019-05-20T15:06:29.115Z,72.81
2019-05-20T15:08:57.174Z,71.30
2019-05-20T15:11:37.018Z,73.05
2019-05-20T15:13:53.840Z,73.36
2019-05-20T15:16:21.817Z,73.58
2019-05-20T15:18:49.570Z,72.57
2019-05-20T15:21:16.932Z,72.72
2019-05-20T15:23:44.623Z,72.19
2019-05-20T15:26:12.464Z,72.26
2019-05-20T15:28:42.396Z,73.42
2019-05-20T15:31:09.994Z,73.01
2019-05-20T15:33:37.635Z,73.29
2019-05-20T15:36:06.108Z,73.26
2019-05-20T15:38:34.203Z,72.34
2019-05-20T15:41:01.506Z,71.91
2019-05-20T15:43:28.991Z,70.86
2019-05-20T15:45:58.306Z,70.18
2019-05-20T15:48:26.827Z,69.58
2019-05-20T15:50:54.231Z,69.59
2019-05-20T15:53:21.661Z,69.27
2019-05-20T15:55:49.156Z,69.62
2019-05-20T15:58:16.915Z,67.94
2019-05-20T16:00:44.316Z,67.86
2019-05-20T16:03:12.012Z,69.22
2019-05-20T16:05:39.298Z,69.20
2019-05-20T16:08:07.273Z,69.04
2019-05-20T16:10:34.719Z,68.35
2019-05-20T16:13:02.276Z,68.77
2019-05-20T16:15:30.148Z,69.26
2019-05-20T16:17:57.824Z,68.07
2019-05-20T16:20:25.478Z,67.65
2019-05-20T16:22:52.833Z,68.26
2019-05-20T16:25:20.600Z,67.60
2019-05-20T16:27:48.016Z,66.57
2019-05-20T16:30:15.476Z,66.78
2019-05-20T16:32:42.795Z,67.36
2019-05-20T16:35:12.513Z,67.02
2019-05-20T16:37:42.429Z,65.76
2019-05-20T16:40:10.204Z,65.07
2019-05-20T16:42:44.301Z,64.34
2019-05-20T16:45:19.623Z,63.25
2019-05-20T16:47:47.408Z,64.03
2019-05-20T16:50:15.973Z,63.74
2019-05-20T16:52:45.690Z,64.21
2019-05-20T16:55:16.098Z,62.83
2019-05-20T16:57:43.681Z,62.16
2019-05-20T17:00:29.751Z,63.44
2019-05-20T17:02:43.538Z,64.68
2019-05-20T17:05:11.858Z,64.79
2019-05-20T17:07:39.171Z,65.01
2019-05-20T17:10:07.210Z,65.02
2019-05-20T17:12:34.521Z,65.58
2019-05-20T17:15:02.062Z,66.48
2019-05-20T17:17:29.534Z,67.93
2019-05-20T17:19:57.573Z,69.16
2019-05-20T17:22:25.065Z,72.11
2019-05-20T17:24:52.411Z,73.02
2019-05-20T17:27:19.672Z,73.22
2019-05-20T17:29:47.434Z,72.62
2019-05-20T17:32:14.789Z,74.29
2019-05-20T17:34:42.257Z,73.61
2019-05-20T17:37:10.005Z,74.72
2019-05-20T17:39:37.922Z,75.55
2019-05-20T17:42:05.585Z,75.44
2019-05-20T17:44:33.280Z,75.86
2019-05-20T17:47:00.727Z,75.58
2019-05-20T17:49:28.263Z,75.24
2019-05-20T17:51:56.669Z,76.01
2019-05-20T17:54:24.157Z,76.08
2019-05-20T17:56:52.025Z,76.48
2019-05-20T17:59:19.489Z,76.41
2019-05-20T18:01:46.841Z,76.15
2019-05-20T18:04:14.449Z,76.61
2019-05-20T18:06:42.352Z,76.68
2019-05-20T18:09:09.946Z,77.23
2019-05-20T18:11:39.239Z,77.80
2019-05-20T18:14:06.629Z,77.91
2019-05-20T18:16:34.049Z,77.96
2019-05-20T18:19:01.514Z,78.91
2019-05-20T18:21:29.067Z,78.61
2019-05-20T18:23:56.959Z,79.23
2019-05-20T18:26:24.282Z,79.87
2019-05-20T18:28:51.752Z,79.84
2019-05-20T18:31:31.762Z,79.80
2019-05-20T18:33:49.037Z,79.04
2019-05-20T18:36:16.857Z,79.46
2019-05-20T18:38:49.233Z,79.67
2019-05-20T18:41:17.227Z,80.00
2019-05-20T18:43:44.965Z,79.87
2019-05-20T18:46:12.452Z,79.52
2019-05-20T18:48:40.257Z,79.84
2019-05-20T18:51:07.790Z,79.55
2019-05-20T18:53:36.189Z,80.15
2019-05-20T18:56:04.674Z,80.30
2019-05-20T18:58:32.616Z,79.66
2019-05-20T19:01:06.767Z,79.24
2019-05-20T19:03:34.669Z,79.97
2019-05-20T19:06:02.174Z,80.06
2019-05-20T19:08:29.654Z,80.63
2019-05-20T19:10:57.943Z,80.13
2019-05-20T19:13:25.693Z,79.83
2019-05-20T19:15:53.058Z,80.29
2019-05-20T19:18:22.155Z,81.16
2019-05-20T19:20:50.080Z,80.67
2019-05-20T19:23:17.889Z,81.02
2019-05-20T19:25:45.142Z,81.41
2019-05-20T19:28:13.633Z,80.92
2019-05-20T19:30:40.970Z,82.05
2019-05-20T19:33:09.004Z,81.51
2019-05-20T19:35:36.323Z,82.03
2019-05-20T19:38:03.583Z,81.40
2019-05-20T19:40:31.866Z,81.68
2019-05-20T19:42:59.561Z,81.75
2019-05-20T19:45:27.134Z,82.55
2019-05-20T19:47:54.454Z,82.70
2019-05-20T19:50:22.283Z,82.44
2019-05-20T19:52:49.694Z,82.81
2019-05-20T19:55:20.418Z,83.17
2019-05-20T19:57:49.654Z,82.51
2019-05-20T20:00:17.762Z,82.98
2019-05-20T20:02:46.998Z,82.69
2019-05-20T20:05:14.718Z,82.75
2019-05-20T20:07:42.329Z,83.53
2019-05-20T20:10:10.612Z,83.34
2019-05-20T20:12:38.137Z,83.54
2019-05-20T20:15:06.101Z,82.87
2019-05-20T20:17:34.519Z,82.58
2019-05-20T20:20:02.546Z,82.93
2019-05-20T20:22:30.171Z,83.48
2019-05-20T20:24:57.606Z,83.44
2019-05-20T20:27:25.070Z,82.34
2019-05-20T20:29:52.826Z,83.12
2019-05-20T20:32:35.214Z,83.41
2019-05-20T20:34:49.675Z,83.10
2019-05-20T20:37:18.071Z,82.51
2019-05-20T20:39:45.429Z,82.77
2019-05-20T20:42:12.813Z,83.06
2019-05-20T20:44:40.564Z,82.14
2019-05-20T20:47:07.899Z,82.47
2019-05-20T20:49:35.283Z,81.97
2019-05-20T20:52:02.628Z,81.58
2019-05-20T20:54:30.499Z,81.14
2019-05-20T20:56:58.875Z,81.10
2019-05-20T20:59:26.231Z,80.71
2019-05-20T21:01:58.767Z,80.12
2019-05-20T21:04:24.047Z,79.72
2019-05-20T21:06:51.468Z,79.59
2019-05-20T21:09:18.997Z,79.49
2019-05-20T21:11:46.707Z,79.51
2019-05-20T21:14:14.343Z,79.39
2019-05-20T21:16:41.631Z,79.45
2019-05-20T21:19:10.279Z,79.56
2019-05-20T21:21:37.602Z,79.76
2019-05-20T21:24:05.354Z,79.83
2019-05-20T21:26:32.916Z,79.72
2019-05-20T21:29:00.279Z,79.07
2019-05-20T21:31:28.260Z,78.89
2019-05-20T21:33:55.623Z,80.03
2019-05-20T21:36:22.980Z,79.68
2019-05-20T21:38:50.351Z,79.80
2019-05-20T21:41:18.526Z,79.59
2019-05-20T21:43:47.328Z,79.41
2019-05-20T21:46:14.699Z,79.33
2019-05-20T21:48:42.151Z,79.48
2019-05-20T21:51:10.912Z,80.55
2019-05-20T21:53:38.415Z,80.31
2019-05-20T21:56:05.876Z,80.33
2019-05-20T21:58:33.644Z,80.75
2019-05-20T22:01:01.625Z,80.77
2019-05-20T22:03:29.453Z,81.72
2019-05-20T22:05:57.235Z,81.22
2019-05-20T22:08:24.527Z,80.92
2019-05-20T22:10:52.323Z,80.39
2019-05-20T22:13:19.669Z,80.85
2019-05-20T22:15:47.035Z,81.06
2019-05-20T22:18:14.363Z,80.49
2019-05-20T22:20:42.388Z,81.44
2019-05-20T22:23:41.846Z,80.67
2019-05-20T22:26:09.303Z,81.21
2019-05-20T22:28:37.063Z,82.86
2019-05-20T22:31:04.679Z,83.09
2019-05-20T22:33:40.970Z,83.02
2019-05-20T22:36:01.587Z,83.49
2019-05-20T22:38:29.352Z,84.79
2019-05-20T22:41:06.306Z,85.83
2019-05-20T22:43:38.518Z,86.46
2019-05-20T22:46:06.577Z,86.10
2019-05-20T22:48:34.462Z,86.02
2019-05-20T22:51:01.953Z,87.04
2019-05-20T22:53:29.574Z,87.64
2019-05-20T22:55:57.252Z,87.18
2019-05-20T22:58:24.695Z,87.66
2019-05-20T23:00:52.924Z,88.14
2019-05-20T23:03:20.980Z,88.03
2019-05-20T23:05:49.240Z,88.10
2019-05-20T23:08:16.623Z,88.04
2019-05-20T23:10:44.004Z,88.37
2019-05-20T23:13:11.289Z,87.81
2019-05-20T23:15:39.232Z,87.85
2019-05-20T23:18:07.712Z,88.18
2019-05-20T23:20:35.277Z,87.99
2019-05-20T23:23:03.045Z,88.01
2019-05-20T23:25:31.734Z,88.08
2019-05-20T23:27:59.290Z,88.93
2019-05-20T23:30:26.745Z,89.55
2019-05-20T23:32:54.310Z,89.61
2019-05-20T23:35:23.342Z,89.61
2019-05-20T23:37:50.876Z,90.06
2019-05-20T23:40:18.276Z,90.42
2019-05-20T23:42:45.737Z,90.77
2019-05-20T23:45:13.897Z,91.47
2019-05-20T23:47:41.372Z,91.63
2019-05-20T23:50:09.085Z,91.41
2019-05-20T23:52:36.633Z,90.39
2019-05-20T23:55:05.486Z,90.13
2019-05-20T23:57:32.865Z,89.42
